Time;durP1;ratioP1;P1;durP2;ratioP2;P2;SDS_P1;SDS_P2;PMS_P1;PMS_P2;Temp;Humidity;BMP_temperature;BMP_pressure;BME280_temperature;BME280_humidity;BME280_pressure;Samples;Min_cycle;Max_cycle;Signal;HPM_P1;HPM_P2
2022/03/20 00:00:44;;;;;;;17.23;9.77;;;;;;;0.79;55.91;101827.06;5072295;28;20228;-77
2022/03/20 00:03:13;;;;;;;14.00;9.77;;;;;;;0.77;54.76;101831.22;5072068;28;20200;-77
2022/03/20 00:05:42;;;;;;;14.30;10.07;;;;;;;0.54;55.43;101813.13;5071839;28;20286;-75
2022/03/20 00:08:09;;;;;;;17.00;9.87;;;;;;;0.53;55.53;101821.59;5072005;28;20293;-77
2022/03/20 00:10:36;;;;;;;16.33;10.63;;;;;;;0.47;56.50;101822.94;5071847;28;20203;-78
2022/03/20 00:13:07;;;;;;;22.60;10.93;;;;;;;0.13;57.41;101797.41;5072089;28;20665;-78
2022/03/20 00:15:34;;;;;;;17.83;11.40;;;;;;;0.24;57.54;101821.81;5071599;28;20203;-77
2022/03/20 00:18:02;;;;;;;14.93;10.50;;;;;;;0.17;58.28;101809.56;5071668;28;20199;-78
2022/03/20 00:20:33;;;;;;;17.50;10.63;;;;;;;0.14;59.55;101804.28;5071337;28;20229;-77
2022/03/20 00:23:00;;;;;;;17.43;10.13;;;;;;;0.18;58.72;101803.66;5071678;28;20196;-78
2022/03/20 00:25:27;;;;;;;15.50;9.87;;;;;;;0.07;59.14;101787.81;5071607;28;20208;-78
2022/03/20 00:27:54;;;;;;;17.83;10.33;;;;;;;-0.08;59.48;101785.34;5071745;28;20196;-78
2022/03/20 00:30:23;;;;;;;16.53;10.13;;;;;;;0.07;59.70;101797.13;5071638;28;20195;-77
2022/03/20 00:32:50;;;;;;;16.83;10.07;;;;;;;0.11;59.56;101796.50;5071443;28;20202;-78
2022/03/20 00:35:16;;;;;;;16.17;10.10;;;;;;;0.02;60.30;101790.91;5071734;28;20197;-79
2022/03/20 00:37:43;;;;;;;17.33;10.03;;;;;;;-0.02;60.63;101795.88;5071533;28;20196;-78
2022/03/20 00:40:11;;;;;;;18.83;10.07;;;;;;;-0.05;60.77;101789.72;5071396;28;20316;-78
2022/03/20 00:42:38;;;;;;;13.87;8.63;;;;;;;0.03;60.42;101790.09;5071220;28;20553;-78
2022/03/20 00:45:06;;;;;;;15.97;10.47;;;;;;;0.00;60.26;101786.59;5071019;28;20340;-78
2022/03/20 00:47:34;;;;;;;19.30;10.87;;;;;;;0.03;61.15;101782.44;5071459;28;20201;-78
2022/03/20 00:50:01;;;;;;;14.53;10.37;;;;;;;-0.01;60.69;101782.31;5071051;28;20201;-78
2022/03/20 00:52:28;;;;;;;16.70;9.90;;;;;;;0.05;60.38;101781.72;5071216;28;20204;-78
2022/03/20 00:54:55;;;;;;;15.13;9.90;;;;;;;-0.04;60.20;101771.06;5070722;28;20231;-75
2022/03/20 00:57:22;;;;;;;16.33;9.90;;;;;;;-0.04;60.42;101789.81;5070632;28;20197;-76
2022/03/20 00:59:49;;;;;;;18.47;10.13;;;;;;;-0.04;60.26;101789.81;5070852;28;20208;-75
2022/03/20 01:02:16;;;;;;;15.30;10.97;;;;;;;-0.06;61.37;101786.31;5070899;28;20210;-76
2022/03/20 01:04:44;;;;;;;16.37;10.23;;;;;;;-0.02;61.35;101788.22;5070944;28;20736;-76
2022/03/20 01:07:11;;;;;;;14.43;10.20;;;;;;;-0.16;61.90;101778.09;5070698;28;20241;-76
2022/03/20 01:09:38;;;;;;;13.40;9.53;;;;;;;-0.19;62.62;101781.38;5070649;28;20208;-76
2022/03/20 01:12:08;;;;;;;15.93;9.30;;;;;;;-0.23;62.38;101788.81;5070638;28;20303;-76
2022/03/20 01:14:35;;;;;;;15.70;9.47;;;;;;;-0.17;62.31;101781.47;5070505;28;20204;-76
2022/03/20 01:17:02;;;;;;;15.53;9.37;;;;;;;-0.21;62.73;101782.97;5070918;28;20572;-75
2022/03/20 01:19:30;;;;;;;14.87;9.17;;;;;;;-0.41;62.91;101776.84;5070513;28;20203;-75
2022/03/20 01:21:59;;;;;;;13.13;8.63;;;;;;;-0.30;63.15;101787.59;5070472;28;20224;-75
2022/03/20 01:24:28;;;;;;;14.80;8.90;;;;;;;-0.50;62.80;101780.59;5070325;28;20198;-75
2022/03/20 01:26:55;;;;;;;14.80;9.63;;;;;;;-0.52;63.17;101772.88;5070212;28;20201;-75
2022/03/20 01:29:22;;;;;;;14.87;9.23;;;;;;;-0.54;63.43;101776.13;5070369;28;20202;-75
2022/03/20 01:31:50;;;;;;;15.90;9.30;;;;;;;-0.58;64.03;101781.91;5070509;28;20200;-75
2022/03/20 01:34:17;;;;;;;12.23;9.17;;;;;;;-0.67;64.82;101772.06;5070133;28;20246;-75
2022/03/20 01:36:44;;;;;;;18.23;9.93;;;;;;;-0.79;65.48;101772.28;5070358;28;20223;-75
2022/03/20 01:39:12;;;;;;;15.50;9.70;;;;;;;-0.80;65.66;101770.56;5070172;28;20184;-75
2022/03/20 01:41:39;;;;;;;17.67;10.20;;;;;;;-1.03;66.84;101737.00;5070032;28;20281;-74
2022/03/20 01:44:06;;;;;;;17.37;10.90;;;;;;;-0.94;67.68;101768.97;5070356;28;20302;-74
2022/03/20 01:46:33;;;;;;;17.33;10.13;;;;;;;-1.12;68.77;101757.75;5070229;28;20196;-75
2022/03/20 01:49:00;;;;;;;16.17;10.27;;;;;;;-1.02;70.25;101774.44;5070286;28;20199;-76
2022/03/20 01:54:10;;;;;;;20.57;9.87;;;;;;;-1.26;71.95;101751.94;5068932;28;20227;-75
2022/03/20 01:56:45;;;;;;;18.93;10.90;;;;;;;-1.22;72.51;101764.03;5070243;28;20196;-74
2022/03/20 01:59:12;;;;;;;16.13;10.40;;;;;;;-1.24;72.55;101770.72;5070081;28;20199;-75
2022/03/20 02:01:39;;;;;;;21.17;10.70;;;;;;;-1.38;74.20;101775.88;5070058;28;20242;-74
2022/03/20 02:04:06;;;;;;;16.83;10.63;;;;;;;-1.35;74.50;101781.97;5070146;28;20203;-75
2022/03/20 02:06:33;;;;;;;23.40;11.23;;;;;;;-1.31;74.67;101785.59;5075541;28;20191;-76
2022/03/20 02:09:01;;;;;;;23.60;12.40;;;;;;;-1.26;74.46;101781.63;5076633;28;20217;-75
2022/03/20 02:11:27;;;;;;;22.53;12.57;;;;;;;-1.32;74.60;101778.72;5076324;28;20195;-75
2022/03/20 02:13:56;;;;;;;22.90;13.07;;;;;;;-1.37;74.16;101775.06;5076588;28;20286;-75
2022/03/20 02:16:23;;;;;;;28.40;12.87;;;;;;;-1.33;73.97;101780.41;5076685;28;20206;-74
2022/03/20 02:18:50;;;;;;;23.37;13.03;;;;;;;-1.35;73.34;101776.00;5076728;28;20205;-74
2022/03/20 02:21:36;;;;;;;21.23;12.63;;;;;;;-1.44;73.26;101765.31;5076337;28;20747;-75
2022/03/20 02:24:03;;;;;;;20.60;12.17;;;;;;;-1.29;73.18;101789.09;5076573;28;20232;-75
2022/03/20 02:26:30;;;;;;;19.60;12.00;;;;;;;-1.37;73.39;101783.59;5076224;28;20196;-75
2022/03/20 02:28:58;;;;;;;22.17;12.07;;;;;;;-1.49;73.29;101754.91;5076283;28;20203;-75
2022/03/20 02:31:25;;;;;;;22.50;11.97;;;;;;;-1.27;73.32;101777.31;5076286;28;20245;-76
2022/03/20 02:33:52;;;;;;;20.80;12.27;;;;;;;-1.40;73.85;101769.81;5076606;28;20686;-75
2022/03/20 02:36:20;;;;;;;21.93;12.80;;;;;;;-1.33;74.24;101775.31;5076133;28;20195;-75
2022/03/20 02:38:47;;;;;;;24.70;13.27;;;;;;;-1.45;75.28;101769.53;5076436;28;20322;-76
2022/03/20 02:41:15;;;;;;;23.87;14.47;;;;;;;-1.41;76.08;101773.13;5076606;28;20696;-75
2022/03/20 02:43:50;;;;;;;22.03;12.93;;;;;;;-1.33;75.83;101774.44;5076251;28;20196;-76
2022/03/20 02:46:18;;;;;;;29.00;15.07;;;;;;;-1.56;77.16;101761.28;5076226;28;20695;-76
2022/03/20 02:48:46;;;;;;;25.03;14.30;;;;;;;-1.40;77.31;101772.34;5076619;28;20574;-76
2022/03/20 02:51:15;;;;;;;30.30;15.07;;;;;;;-1.45;77.88;101769.53;5075902;28;20207;-76
2022/03/20 02:53:43;;;;;;;26.20;14.43;;;;;;;-1.38;77.86;101775.88;5075924;28;20195;-75
2022/03/20 02:56:10;;;;;;;25.13;14.97;;;;;;;-1.39;78.40;101780.06;5076062;28;20580;-76
2022/03/20 02:58:37;;;;;;;29.13;15.37;;;;;;;-1.32;77.98;101771.97;5076059;28;20230;-77
2022/03/20 03:01:04;;;;;;;25.80;14.57;;;;;;;-1.60;77.24;101726.28;5075952;28;20223;-76
2022/03/20 03:03:31;;;;;;;32.13;14.37;;;;;;;-1.39;76.11;101754.59;5076146;28;20195;-76
2022/03/20 03:05:58;;;;;;;23.53;13.03;;;;;;;-1.29;75.34;101772.16;5076219;28;20314;-76
2022/03/20 03:11:11;;;;;;;23.20;13.37;;;;;;;-1.32;75.03;101766.00;5076064;28;20199;-76
2022/03/20 03:13:39;;;;;;;19.03;11.57;;;;;;;-1.27;73.59;101768.00;5076212;28;20192;-76
2022/03/20 03:16:08;;;;;;;20.13;11.97;;;;;;;-1.27;72.27;101775.66;5075418;28;20204;-76
2022/03/20 03:18:36;;;;;;;19.80;11.83;;;;;;;-1.28;71.33;101771.34;5072015;28;20676;-75
2022/03/20 03:21:03;;;;;;;20.47;12.37;;;;;;;-1.46;71.65;101743.19;5072748;28;20241;-75
2022/03/20 03:23:30;;;;;;;17.40;11.13;;;;;;;-1.23;70.56;101772.47;5072758;28;20591;-76
2022/03/20 03:25:58;;;;;;;15.60;11.03;;;;;;;-1.17;nan;101771.94;5072802;28;20293;-76
2022/03/20 03:28:34;;;;;;;18.87;11.50;;;;;;;-1.16;69.88;101773.69;5072510;28;20203;-76
2022/03/20 03:31:01;;;;;;;18.63;11.07;;;;;;;-1.18;69.45;101781.25;5072957;28;20735;-76
2022/03/20 03:33:29;;;;;;;20.07;11.13;;;;;;;-1.19;69.63;101776.94;5072591;28;20279;-75
2022/03/20 03:35:56;;;;;;;18.17;11.60;;;;;;;-1.51;70.01;101729.34;5072556;28;20202;-76
2022/03/20 03:38:25;;;;;;;18.00;10.33;;;;;;;-1.19;69.75;101778.63;5072458;28;20719;-76
2022/03/20 03:40:52;;;;;;;15.73;10.67;;;;;;;-1.36;69.48;101743.72;5072615;28;20203;-77
2022/03/20 03:43:20;;;;;;;17.17;10.67;;;;;;;-1.14;69.07;101782.31;5072495;28;20230;-76
2022/03/20 03:45:49;;;;;;;17.47;10.43;;;;;;;-1.32;69.12;101754.13;5072494;28;20199;-75
2022/03/20 03:48:17;;;;;;;17.57;10.37;;;;;;;-1.17;68.59;101774.50;5072443;28;20571;-76
2022/03/20 03:50:46;;;;;;;17.57;9.03;;;;;;;-1.16;67.77;101758.41;5071986;28;20200;-76
2022/03/20 03:53:13;;;;;;;12.23;9.03;;;;;;;-1.13;66.66;101769.63;5063203;28;20192;-76
2022/03/20 03:55:43;;;;;;;15.97;9.53;;;;;;;-1.14;66.34;101778.09;5060339;28;20315;-76
2022/03/20 03:58:10;;;;;;;16.47;9.30;;;;;;;-1.18;66.12;101776.16;5055189;28;20224;-76
2022/03/20 04:00:37;;;;;;;16.80;9.57;;;;;;;-1.19;65.75;101774.41;5052111;28;20199;-78
2022/03/20 04:03:05;;;;;;;12.90;8.20;;;;;;;-1.12;65.32;101779.03;5051959;28;20235;-76
2022/03/20 04:05:34;;;;;;;12.67;8.63;;;;;;;-1.04;65.11;101766.72;5052153;28;20203;-78
2022/03/20 04:08:02;;;;;;;13.90;8.70;;;;;;;-1.04;64.09;101768.38;5052357;28;20703;-76
2022/03/20 04:10:29;;;;;;;11.40;7.77;;;;;;;-1.09;63.80;101765.56;5051985;28;20219;-75
2022/03/20 04:12:56;;;;;;;15.77;8.77;;;;;;;-1.16;64.19;101774.56;5051990;28;20673;-77
2022/03/20 04:15:24;;;;;;;13.13;8.67;;;;;;;-1.24;64.35;101765.59;5057318;28;20315;-76
2022/03/20 04:17:51;;;;;;;13.40;7.57;;;;;;;-1.23;64.44;101756.28;5071230;28;20277;-78
2022/03/20 04:20:20;;;;;;;9.73;7.33;;;;;;;-1.22;64.38;101774.22;5071567;28;20615;-77
2022/03/20 04:25:28;;;;;;;13.53;7.67;;;;;;;-1.19;63.89;101778.63;5070217;28;20719;-77
2022/03/20 04:27:56;;;;;;;14.27;7.97;;;;;;;-1.14;63.74;101782.31;5070795;28;20263;-78
2022/03/20 04:30:25;;;;;;;20.77;7.37;;;;;;;-1.18;66.64;101771.06;5070456;28;20269;-76
2022/03/20 04:32:52;;;;;;;10.30;7.20;;;;;;;-0.96;64.63;101787.50;5071277;28;20599;-76
2022/03/20 04:35:21;;;;;;;9.67;6.80;;;;;;;-1.13;63.57;101761.97;5070951;28;20223;-78
2022/03/20 04:37:48;;;;;;;9.13;6.80;;;;;;;-1.28;63.32;101733.13;5065961;28;20666;-77
2022/03/20 04:40:15;;;;;;;8.90;6.70;;;;;;;-0.86;63.83;101780.44;5052672;28;20203;-79
2022/03/20 04:42:42;;;;;;;7.13;6.40;;;;;;;-1.21;62.55;101734.34;5051065;28;20225;-79
2022/03/20 04:45:12;;;;;;;13.25;7.75;;;;;;;-0.88;61.96;101784.56;5050332;28;20431;-80
2022/03/20 04:58:43;;;;;;;9.17;6.47;;;;;;;-0.61;60.10;101762.19;5042460;28;20196;-78
2022/03/20 05:01:10;;;;;;;8.27;6.40;;;;;;;-0.34;59.56;101772.97;5071161;28;20193;-78
2022/03/20 05:03:37;;;;;;;9.30;6.77;;;;;;;-0.23;59.20;101783.72;5054128;28;20224;-79
2022/03/20 05:06:06;;;;;;;6.50;5.80;;;;;;;-0.22;59.41;101771.00;5065623;28;20228;-76
2022/03/20 05:08:35;;;;;;;7.83;6.40;;;;;;;-0.05;58.45;101785.50;5070144;28;20243;-79
2022/03/20 05:13:47;;;;;;;11.23;7.33;;;;;;;-0.26;57.84;101735.94;5060448;28;20353;-76
2022/03/20 05:16:13;;;;;;;7.97;6.83;;;;;;;0.09;58.38;101767.44;5061640;28;20294;-78
2022/03/20 05:18:40;;;;;;;9.33;7.10;;;;;;;0.10;57.48;101769.22;5059607;28;20747;-78
2022/03/20 05:21:09;;;;;;;9.97;7.00;;;;;;;0.35;57.02;101792.56;5065879;28;20621;-79
2022/03/20 05:23:36;;;;;;;10.27;6.90;;;;;;;0.23;56.87;101784.31;5068386;28;20250;-77
2022/03/20 05:26:03;;;;;;;8.97;6.73;;;;;;;0.37;57.28;101793.53;5061525;28;20226;-77
2022/03/20 05:28:30;;;;;;;7.47;6.03;;;;;;;0.91;56.45;101796.94;5069336;28;20201;-77
2022/03/20 05:30:57;;;;;;;8.07;6.53;;;;;;;2.10;53.87;101798.88;5070169;28;20200;-76
2022/03/20 05:33:25;;;;;;;8.87;6.73;;;;;;;3.97;49.39;101790.63;5063650;28;20608;-75
2022/03/20 05:35:51;;;;;;;10.50;7.17;;;;;;;5.65;44.11;101795.81;5050153;28;20332;-78
2022/03/20 05:38:20;;;;;;;6.90;6.20;;;;;;;6.93;41.33;101799.97;5063443;28;20227;-77
2022/03/20 05:40:47;;;;;;;9.43;6.70;;;;;;;8.09;39.82;101803.19;5068304;28;20220;-76
2022/03/20 05:43:14;;;;;;;7.73;6.50;;;;;;;9.19;36.19;101804.94;5068476;28;20242;-77
2022/03/20 05:45:44;;;;;;;8.10;6.43;;;;;;;9.77;34.99;101770.22;5060010;28;20294;-78
2022/03/20 05:48:11;;;;;;;7.10;6.40;;;;;;;10.70;33.74;101812.63;5059149;28;20294;-77
2022/03/20 05:50:38;;;;;;;7.63;6.83;;;;;;;11.29;32.83;101819.03;5058962;28;20216;-77
2022/03/20 05:53:05;;;;;;;8.20;6.57;;;;;;;11.93;31.77;101808.91;5058947;28;20298;-77
2022/03/20 05:58:17;;;;;;;11.23;7.40;;;;;;;13.02;30.16;101812.38;5050213;28;20644;-82
2022/03/20 06:00:44;;;;;;;8.87;7.40;;;;;;;13.16;29.80;101788.91;5059297;28;20196;-78
2022/03/20 06:03:11;;;;;;;7.73;6.97;;;;;;;14.27;28.61;101810.06;5069798;28;20219;-79
2022/03/20 06:05:39;;;;;;;8.40;7.50;;;;;;;14.32;28.05;101821.34;5070258;28;20196;-80
2022/03/20 06:08:07;;;;;;;7.77;7.03;;;;;;;14.72;27.41;101805.34;5070231;28;20196;-82
2022/03/20 06:10:35;;;;;;;10.20;7.47;;;;;;;14.44;27.58;101805.63;5063276;28;20211;-77
2022/03/20 06:13:04;;;;;;;8.83;7.17;;;;;;;14.57;27.36;101821.16;5062981;28;20278;-77
2022/03/20 06:15:32;;;;;;;10.33;7.50;;;;;;;14.79;27.15;101817.47;5067355;28;20618;-77
2022/03/20 06:17:59;;;;;;;9.17;7.23;;;;;;;15.03;26.69;101819.00;5068006;28;20703;-77
2022/03/20 06:20:26;;;;;;;9.23;6.83;;;;;;;15.09;26.65;101816.31;5066905;28;20218;-79
2022/03/20 06:22:53;;;;;;;7.70;7.00;;;;;;;15.81;26.40;101818.94;5068400;28;20223;-80
2022/03/20 06:25:20;;;;;;;8.77;7.27;;;;;;;16.57;25.35;101805.56;5069859;28;20192;-80
2022/03/20 06:27:51;;;;;;;7.73;6.90;;;;;;;16.77;24.84;101825.34;5069877;28;20323;-77
2022/03/20 06:30:19;;;;;;;8.50;7.07;;;;;;;16.65;24.67;101822.06;5070032;28;20299;-77
2022/03/20 06:32:47;;;;;;;8.67;6.43;;;;;;;16.61;24.27;101824.72;5069815;28;20198;-80
2022/03/20 06:35:17;;;;;;;7.20;6.57;;;;;;;17.32;23.91;101826.06;5069724;28;20481;-76
2022/03/20 06:37:46;;;;;;;7.30;6.70;;;;;;;17.57;23.34;101812.44;5069422;28;20239;-77
2022/03/20 06:40:15;;;;;;;8.43;7.73;;;;;;;18.20;23.00;101823.28;5069442;28;20200;-78
2022/03/20 06:42:43;;;;;;;8.10;7.40;;;;;;;17.70;24.05;101822.69;5069214;28;20223;-77
2022/03/20 06:45:13;;;;;;;8.13;7.45;;;;;;;18.22;22.86;101820.63;5069601;28;20196;-76
2022/03/20 06:47:41;;;;;;;8.75;8.07;;;;;;;18.69;22.60;101823.00;5069569;28;20192;-81
2022/03/20 06:50:10;;;;;;;7.55;6.85;;;;;;;18.18;22.33;101829.47;5068775;28;20664;-80
2022/03/20 06:52:38;;;;;;;7.70;6.90;;;;;;;18.06;22.03;101831.50;5071419;28;20194;-80
2022/03/20 06:55:07;;;;;;;7.38;6.80;;;;;;;18.19;21.90;101823.31;5072043;28;20288;-79
2022/03/20 06:57:33;;;;;;;7.68;6.65;;;;;;;18.32;22.24;101822.13;5069501;28;20216;-81
2022/03/20 07:00:02;;;;;;;7.22;6.57;;;;;;;18.71;21.28;101821.19;5072351;28;20664;-79
2022/03/20 07:02:30;;;;;;;7.20;6.60;;;;;;;18.91;21.05;101823.28;5071913;28;20273;-79
2022/03/20 07:04:57;;;;;;;7.75;7.13;;;;;;;18.67;21.32;101790.59;5072102;28;20596;-80
2022/03/20 07:07:24;;;;;;;8.27;7.47;;;;;;;19.47;21.35;101816.44;5071632;28;20558;-83
2022/03/20 07:09:52;;;;;;;8.13;7.30;;;;;;;19.92;20.70;101823.94;5072713;28;20617;-82
2022/03/20 07:12:19;;;;;;;8.80;7.38;;;;;;;20.51;20.11;101810.63;5072264;28;20192;-80
2022/03/20 07:14:47;;;;;;;9.10;7.85;;;;;;;21.07;19.54;101811.31;5067868;28;20197;-79
2022/03/20 07:17:16;;;;;;;8.13;7.43;;;;;;;20.65;19.77;101800.47;5070347;28;20658;-82
2022/03/20 07:19:45;;;;;;;8.00;7.28;;;;;;;21.65;18.92;101819.75;5073650;28;20224;-81
2022/03/20 07:22:13;;;;;;;8.23;7.10;;;;;;;21.99;18.66;101777.03;5073023;28;20700;-82
2022/03/20 07:24:42;;;;;;;8.13;7.47;;;;;;;22.24;18.29;101816.56;5071886;28;20200;-81
2022/03/20 07:29:53;;;;;;;7.88;6.90;;;;;;;22.90;17.58;101781.13;5057519;28;20579;-77
2022/03/20 07:32:21;;;;;;;8.27;7.55;;;;;;;22.65;17.63;101761.91;5052494;28;20205;-77
2022/03/20 07:34:49;;;;;;;8.65;6.88;;;;;;;22.06;18.17;101797.00;5052581;28;20192;-79
2022/03/20 07:37:18;;;;;;;6.97;6.47;;;;;;;22.59;18.50;101799.22;5052858;28;20199;-82
2022/03/20 07:39:46;;;;;;;8.75;7.07;;;;;;;23.43;18.04;101777.84;5052766;28;20208;-83
2022/03/20 07:42:13;;;;;;;10.85;6.50;;;;;;;24.22;18.13;101785.53;5062507;28;20700;-82
2022/03/20 07:44:40;;;;;;;6.97;6.40;;;;;;;25.83;15.68;101797.41;5067060;28;20198;-81
2022/03/20 07:47:09;;;;;;;7.45;6.95;;;;;;;25.29;15.64;101799.47;5059450;28;20443;-83
2022/03/20 07:49:37;;;;;;;7.40;6.90;;;;;;;25.33;15.71;101793.03;5061474;28;20220;-84
2022/03/20 07:52:06;;;;;;;8.07;7.40;;;;;;;25.58;15.56;101792.56;5060825;28;20286;-83
2022/03/20 07:54:36;;;;;;;7.63;7.00;;;;;;;25.36;15.44;101780.53;5062712;28;20654;-82
2022/03/20 07:57:03;;;;;;;7.38;6.80;;;;;;;25.39;15.70;101802.50;5066540;28;20224;-83
2022/03/20 07:59:30;;;;;;;7.13;6.57;;;;;;;25.21;15.47;101791.03;5062783;28;20584;-81
2022/03/20 08:01:57;;;;;;;7.50;7.00;;;;;;;23.67;16.17;101789.13;5072194;28;20192;-83
2022/03/20 08:04:24;;;;;;;7.10;6.40;;;;;;;20.37;17.83;101768.00;5071713;28;20287;-85
2022/03/20 08:06:51;;;;;;;6.22;5.82;;;;;;;18.65;19.20;101792.38;5072479;28;20198;-82
2022/03/20 08:09:20;;;;;;;8.10;7.32;;;;;;;16.89;20.74;101759.56;5072711;28;20261;-83
2022/03/20 08:11:47;;;;;;;6.88;6.38;;;;;;;15.63;21.81;101777.31;5071192;28;20204;-82
2022/03/20 08:14:14;;;;;;;6.40;5.90;;;;;;;14.23;22.88;101743.03;5072487;28;20198;-84
2022/03/20 08:16:41;;;;;;;6.27;5.70;;;;;;;12.88;23.80;101743.75;5072504;28;20199;-82
2022/03/20 08:19:09;;;;;;;6.47;5.87;;;;;;;12.24;25.19;101769.88;5073173;28;20576;-83
2022/03/20 08:21:36;;;;;;;6.03;5.37;;;;;;;11.42;26.05;101756.66;5070728;28;20199;-83
2022/03/20 08:24:04;;;;;;;5.47;5.07;;;;;;;10.79;26.71;101760.72;5071844;28;20231;-81
2022/03/20 08:26:33;;;;;;;5.57;5.07;;;;;;;10.04;26.76;101757.53;5071518;28;20665;-80
2022/03/20 08:29:00;;;;;;;6.73;5.90;;;;;;;9.19;27.31;101706.47;5071820;28;20310;-80
2022/03/20 08:31:28;;;;;;;5.50;5.00;;;;;;;9.37;28.65;101755.91;5071762;28;20704;-80
2022/03/20 08:33:55;;;;;;;5.73;5.20;;;;;;;8.86;28.79;101753.53;5071093;28;20215;-81
2022/03/20 08:36:22;;;;;;;5.53;5.13;;;;;;;8.64;29.21;101758.41;5070458;28;20231;-78
2022/03/20 08:38:49;;;;;;;6.93;5.20;;;;;;;8.31;28.80;101755.25;5070680;28;20223;-77
2022/03/20 08:41:16;;;;;;;9.10;5.30;;;;;;;8.29;29.23;101749.19;5062989;28;20231;-76
2022/03/20 08:43:44;;;;;;;7.27;5.20;;;;;;;7.80;29.83;101725.06;5071549;28;20230;-78
2022/03/20 08:46:11;;;;;;;5.80;4.83;;;;;;;7.41;29.18;101706.25;5071484;28;20206;-76
2022/03/20 08:48:38;;;;;;;5.67;5.10;;;;;;;7.58;29.75;101710.88;5071366;28;20206;-76
2022/03/20 08:51:05;;;;;;;8.57;5.30;;;;;;;7.40;30.20;101656.31;5071671;28;20284;-79
2022/03/20 08:53:32;;;;;;;5.17;4.77;;;;;;;7.53;29.84;101673.78;5070766;28;20192;-78
2022/03/20 08:55:59;;;;;;;5.97;4.80;;;;;;;7.81;30.51;101713.00;5070371;28;20198;-78
2022/03/20 08:58:27;;;;;;;5.20;4.80;;;;;;;7.89;29.94;101688.19;5049655;28;20196;-79
2022/03/20 09:00:57;;;;;;;7.43;5.10;;;;;;;8.00;29.32;101715.97;5049698;28;20207;-78
2022/03/20 09:03:24;;;;;;;5.60;4.77;;;;;;;7.93;29.74;101729.63;5050056;28;20607;-80
2022/03/20 09:05:51;;;;;;;5.20;4.80;;;;;;;7.85;30.04;101720.88;5049928;28;20192;-80
2022/03/20 09:08:18;;;;;;;5.70;5.13;;;;;;;7.42;29.77;101657.19;5049634;28;20214;-80
2022/03/20 09:10:45;;;;;;;6.50;4.47;;;;;;;7.98;29.93;101706.44;5050271;28;20203;-81
2022/03/20 09:13:13;;;;;;;5.90;5.40;;;;;;;7.92;30.13;101704.59;5050754;28;20246;-81
2022/03/20 09:15:40;;;;;;;5.50;4.80;;;;;;;7.50;30.21;101637.53;5050229;28;20695;-80
2022/03/20 09:20:52;;;;;;;6.33;5.13;;;;;;;7.77;29.37;101682.81;5051199;28;20204;-80
2022/03/20 09:23:19;;;;;;;7.60;5.00;;;;;;;7.82;29.63;101704.41;5050871;28;20216;-82
2022/03/20 09:25:46;;;;;;;5.47;4.97;;;;;;;7.78;29.58;101695.75;5050961;28;20197;-81
2022/03/20 09:28:15;;;;;;;7.00;4.53;;;;;;;7.91;29.07;101697.69;5050896;28;20216;-80
2022/03/20 09:30:43;;;;;;;4.87;4.47;;;;;;;8.03;29.25;101700.47;5050848;28;20213;-82
2022/03/20 09:33:11;;;;;;;4.90;4.40;;;;;;;8.20;28.94;101680.06;5050828;28;20224;-80
2022/03/20 09:35:38;;;;;;;4.93;4.50;;;;;;;8.50;28.74;101692.63;5050991;28;20197;-81
2022/03/20 09:38:07;;;;;;;5.40;4.90;;;;;;;8.65;28.23;101685.06;5059443;28;20192;-80
2022/03/20 09:40:36;;;;;;;7.97;5.37;;;;;;;8.51;28.87;101652.06;5069653;28;20196;-85
2022/03/20 09:43:04;;;;;;;6.70;5.50;;;;;;;8.45;28.82;101660.63;5072223;28;20231;-82
2022/03/20 09:45:31;;;;;;;5.30;4.80;;;;;;;8.34;29.07;101647.53;5072147;28;20274;-82
2022/03/20 09:47:59;;;;;;;5.90;5.40;;;;;;;8.55;28.60;101678.03;5070085;28;20668;-80
2022/03/20 09:50:28;;;;;;;7.87;5.43;;;;;;;8.51;28.60;101672.78;5069668;28;20281;-81
2022/03/20 09:52:55;;;;;;;5.63;5.03;;;;;;;8.35;28.78;101648.41;5069064;28;20207;-85
2022/03/20 09:55:22;;;;;;;6.87;5.40;;;;;;;8.44;28.00;101665.78;5068732;28;20319;-85
2022/03/20 09:57:49;;;;;;;5.23;4.67;;;;;;;8.40;28.38;101662.28;5069564;28;20196;-81
2022/03/20 10:00:17;;;;;;;5.80;5.23;;;;;;;8.38;28.32;101636.38;5071408;28;20202;-81
2022/03/20 10:02:46;;;;;;;7.30;5.40;;;;;;;8.53;28.87;101660.72;5070627;28;20616;-85
2022/03/20 10:05:21;;;;;;;6.13;5.03;;;;;;;8.52;28.96;101659.88;5072227;28;20200;-82
2022/03/20 10:07:49;;;;;;;5.77;4.83;;;;;;;8.49;28.76;101661.53;5070382;28;20196;-84
2022/03/20 10:10:17;;;;;;;5.17;4.13;;;;;;;8.56;28.43;101643.53;5050313;28;20200;-85
2022/03/20 10:12:46;;;;;;;5.13;4.73;;;;;;;8.54;28.73;101626.25;5059352;28;20202;-81
2022/03/20 10:15:32;;;;;;;4.73;4.33;;;;;;;8.59;28.23;101628.03;5062313;28;20204;-85
2022/03/20 10:18:09;;;;;;;5.07;4.68;;;;;;;8.81;28.71;101652.47;5068531;28;20779;-83
2022/03/20 10:20:38;;;;;;;12.43;8.40;;;;;;;8.29;28.74;101622.41;5069282;28;20198;-83
2022/03/20 10:23:30;;;;;;;6.70;4.63;;;;;;;8.15;28.63;101642.91;5063357;28;20216;-83
2022/03/20 10:25:58;;;;;;;4.90;4.50;;;;;;;7.77;28.92;101610.41;5059553;28;20192;-81
2022/03/20 10:28:35;;;;;;;11.80;8.10;;;;;;;8.01;29.82;101640.09;5065652;28;20195;-82
2022/03/20 10:31:04;;;;;;;37.50;15.90;;;;;;;8.14;29.13;101645.44;5065081;28;20633;-80
2022/03/20 10:33:33;;;;;;;18.00;9.57;;;;;;;8.26;29.24;101627.53;5074327;28;20624;-82
2022/03/20 10:36:13;;;;;;;4.20;3.90;;;;;;;8.37;27.63;101624.28;5073700;28;20192;-82
2022/03/20 10:38:43;;;;;;;19.50;12.40;;;;;;;8.46;27.96;101633.03;5058129;28;20239;-82
2022/03/20 10:41:17;;;;;;;8.30;6.07;;;;;;;8.27;27.66;101600.81;5053491;28;20230;-83
2022/03/20 10:43:45;;;;;;;6.13;4.37;;;;;;;8.48;27.46;101620.97;5056189;28;20628;-80
2022/03/20 10:46:19;;;;;;;5.37;4.27;;;;;;;8.36;27.52;101621.66;5061326;28;20255;-84
2022/03/20 10:48:48;;;;;;;5.30;4.57;;;;;;;8.43;27.82;101607.09;5062941;28;20238;-81
2022/03/20 10:51:25;;;;;;;6.90;3.80;;;;;;;8.34;28.32;101582.84;5062050;28;20231;-81
2022/03/20 10:53:55;;;;;;;5.83;4.03;;;;;;;8.44;28.34;101560.56;5057087;28;20247;-83
2022/03/20 10:56:22;;;;;;;5.33;4.27;;;;;;;8.89;27.89;101595.59;5060742;28;20395;-87
2022/03/20 10:58:49;;;;;;;4.00;3.70;;;;;;;8.59;28.00;101568.47;5053238;28;20701;-86
2022/03/20 11:01:17;;;;;;;4.47;4.07;;;;;;;8.74;27.36;101578.16;5054264;28;20296;-83
2022/03/20 11:03:44;;;;;;;4.70;3.90;;;;;;;8.70;27.84;101610.91;5060381;28;20603;-85
2022/03/20 11:06:13;;;;;;;4.37;3.97;;;;;;;8.56;27.80;101565.88;5073173;28;20239;-83
2022/03/20 11:08:40;;;;;;;4.77;4.37;;;;;;;8.92;28.30;101605.97;5073142;28;20667;-84
2022/03/20 11:11:11;;;;;;;6.23;4.20;;;;;;;8.67;28.28;101548.75;5074769;28;20238;-84
2022/03/20 11:13:40;;;;;;;6.30;4.17;;;;;;;8.87;29.55;101548.97;5075823;28;20259;-84
2022/03/20 11:16:09;;;;;;;4.10;3.73;;;;;;;9.09;29.02;101591.50;5074805;28;20603;-84
2022/03/20 11:18:39;;;;;;;4.87;3.97;;;;;;;9.12;27.16;101586.34;5073391;28;20583;-83
2022/03/20 11:21:07;;;;;;;4.63;4.30;;;;;;;8.94;27.87;101563.69;5074904;28;20256;-82
2022/03/20 11:23:35;;;;;;;4.67;4.27;;;;;;;9.14;27.75;101584.66;5076127;28;20228;-83
2022/03/20 11:26:03;;;;;;;4.83;3.97;;;;;;;9.12;27.88;101569.94;5076920;28;20330;-84
2022/03/20 11:28:42;;;;;;;5.83;5.33;;;;;;;9.01;27.52;101534.44;5075906;28;20232;-83
2022/03/20 11:31:10;;;;;;;4.23;3.90;;;;;;;8.96;27.00;101576.69;5063460;28;20302;-84
2022/03/20 11:33:37;;;;;;;4.03;3.63;;;;;;;8.93;28.14;101576.63;5063926;28;20708;-83
2022/03/20 11:36:05;;;;;;;4.10;3.80;;;;;;;8.73;27.30;101558.28;5076782;28;20216;-84
2022/03/20 11:38:35;;;;;;;6.17;4.17;;;;;;;8.60;28.62;101559.00;5064933;28;20598;-82
2022/03/20 11:41:14;;;;;;;4.33;4.00;;;;;;;8.85;27.72;101562.75;5055365;28;20225;-83
2022/03/20 11:43:44;;;;;;;4.60;4.20;;;;;;;8.91;27.40;101561.09;5054999;28;20243;-83
2022/03/20 11:46:28;;;;;;;5.93;4.23;;;;;;;8.87;27.94;101563.63;5053293;28;20282;-82
2022/03/20 11:49:24;;;;;;;4.17;3.77;;;;;;;8.82;27.40;101550.63;5061029;28;20220;-83
2022/03/20 11:52:00;;;;;;;6.40;4.00;;;;;;;8.95;27.74;101552.50;5067770;28;20216;-83
2022/03/20 11:54:32;;;;;;;3.97;3.57;;;;;;;9.00;27.87;101547.38;5070482;28;20231;-83
2022/03/20 11:57:00;;;;;;;6.17;3.80;;;;;;;9.05;26.78;101541.38;5071788;28;20212;-81
2022/03/20 11:59:49;;;;;;;4.93;3.90;;;;;;;8.91;27.54;101542.97;5069703;28;20667;-80